Latest Weather Observations for Hamilton

IDV60801

Issued at 8:05 pm EST Monday 22 September 2014 (issued every 30 minutes, with the page automatically refreshed every 10 minutes)

About weather observations | Map of weather stations | Latest weather observations for VIC | Other Formats
Station Details ID: 090173 Name: HAMILTON AIRPORT Lat: -37.65 Lon: 142.06 Height: 241.1 m
Data from the previous 72 hours. | See also: Recent months at Hamilton
Date/Time
EST
Temp
°C
App
Temp
°C
Dew
Point
Rel
Hum
%
Delta-T
°C
Wind Press
QNH
hPa
Press
MSL
hPa
Rain
since 9 am
mm
Dir
 
Spd
km/h
Gust
km/h
Spd
kts
Gust
kts
22/08:00pm 10.7 7.1 4.8 67 2.7 E 13 15 7 8 1026.1 1026.3 0.0
22/07:30pm 11.9 8.6 6.4 69 2.6 ESE 13 15 7 8 1025.9 1026.1 0.0
22/07:00pm 16.2 15.6 7.2 55 4.5 CALM 0 0 0 0 1025.5 1025.7 0.0
22/06:30pm 16.4 15.8 9.1 62 3.8 NNE 2 6 1 3 1025.2 1025.4 0.0
22/06:00pm 19.6 18.0 8.0 47 6.0 NE 6 6 3 3 1025.0 1025.2 0.0
22/05:30pm 20.4 19.1 6.0 39 7.3 N 2 7 1 4 1025.0 1025.2 0.0
22/05:00pm 20.9 18.8 6.8 40 7.2 NNE 7 9 4 5 1024.8 1025.0 0.0
22/04:30pm 21.0 18.5 8.3 44 6.7 NNE 11 15 6 8 1024.7 1024.9 0.0
22/04:00pm 21.0 17.7 6.2 38 7.5 N 13 15 7 8 1024.8 1025.0 0.0
22/03:30pm 20.9 17.7 8.5 45 6.6 N 15 19 8 10 1025.0 1025.2 0.0
22/03:00pm 20.8 17.6 8.4 45 6.5 N 15 20 8 11 1025.2 1025.4 0.0
22/02:30pm 20.8 18.1 9.1 47 6.3 NNE 13 19 7 10 1025.5 1025.7 0.0
22/02:00pm 20.4 17.7 9.0 48 6.1 N 13 22 7 12 1025.8 1026.0 0.0
22/01:30pm 19.8 16.2 8.5 48 6.0 N 17 28 9 15 1026.1 1026.3 0.0
22/01:00pm 19.7 16.7 9.3 51 5.5 N 15 19 8 10 1026.3 1026.5 0.0
22/12:30pm 19.2 16.7 9.7 54 5.1 NNW 13 20 7 11 1026.8 1027.0 0.0
22/12:00pm 18.7 15.3 9.2 54 5.0 NNW 17 26 9 14 1027.3 1027.6 0.0
22/11:30am 18.4 15.9 11.0 62 4.1 N 15 28 8 15 1027.7 1028.0 0.0
22/11:00am 17.7 14.7 10.8 64 3.7 N 17 22 9 12 1028.0 1028.3 0.0
22/10:30am 16.8 13.9 10.9 68 3.2 N 17 22 9 12 1028.3 1028.5 0.0
22/10:00am 15.8 12.1 10.1 69 3.0 N 20 28 11 15 1028.4 1028.6 0.0
22/09:30am 15.0 10.8 9.8 71 2.7 N 22 28 12 15 1028.4 1028.6 0.0
22/09:00am 13.4 9.5 9.3 76 2.1 N 20 26 11 14 1028.6 1028.8 0.0
22/08:30am 12.3 8.4 9.3 82 1.5 N 20 28 11 15 1028.6 1028.8 0.0
22/08:00am 10.2 7.0 10.0 99 0.1 N 17 20 9 11 1028.5 1028.7 0.0
22/07:30am 6.2 2.8 6.1 99 0.0 N 13 15 7 8 1028.4 1028.6 0.0
22/07:00am 3.9 0.5 3.8 99 0.0 N 11 13 6 7 1028.3 1028.5 0.0
22/06:30am 3.4 -0.1 3.3 99 0.0 N 11 13 6 7 1028.0 1028.3 0.0
22/06:09am 4.4 1.4 4.3 99 0.0 N 9 9 5 5 1027.8 1028.1 0.0
22/06:00am 4.4 1.4 4.3 99 0.0 N 9 9 5 5 1027.8 1028.1 0.0
22/05:35am 4.6 2.1 4.5 99 0.0 N 7 9 4 5 1027.5 1027.8 0.0
22/05:30am 4.8 2.5 4.7 99 0.0 N 6 7 3 4 1027.5 1027.8 0.0
22/05:00am 4.8 3.6 4.7 99 0.0 CALM 0 0 0 0 1027.4 1027.7 0.0
22/04:56am 4.7 3.5 4.6 99 0.0 CALM 0 0 0 0 1027.3 1027.6 0.0
22/04:30am 3.5 1.7 3.4 99 0.0 NNE 2 7 1 4 1027.2 1027.5 0.0
22/04:27am 3.8 1.7 3.7 99 0.0 NNE 4 7 2 4 1027.2 1027.5 0.0
22/04:00am 4.3 1.9 4.2 99 0.0 N 6 7 3 4 1027.1 1027.4 0.0
22/03:30am 4.1 0.7 4.0 99 0.0 N 11 11 6 6 1027.1 1027.4 0.0
22/03:00am 4.7 1.8 4.6 99 0.0 N 9 11 5 6 1027.4 1027.7 0.0
22/02:30am 2.4 -0.6 2.3 99 0.0 N 7 9 4 5 1027.8 1028.1 0.0
22/02:00am 3.7 1.0 3.6 99 0.0 NNE 7 9 4 5 1027.9 1028.2 0.0
22/01:30am 5.0 2.5 4.9 99 0.0 NE 7 9 4 5 1028.4 1028.6 0.0
22/01:00am 3.6 0.5 3.5 99 0.0 ENE 9 11 5 6 1028.5 1028.7 0.0
22/12:30am 4.1 0.3 4.0 99 0.0 ENE 13 15 7 8 1028.4 1028.6 0.0
22/12:00am 4.2 0.1 4.1 99 0.0 E 15 17 8 9 1028.3 1028.5 0.0
 
Date/Time
EST
Temp
°C
App
Temp
°C
Dew
Point
Rel
Hum
%
Delta-T
°C
Wind Press
QNH
hPa
Press
MSL
hPa
Rain
since 9 am
mm
Dir
 
Spd
km/h
Gust
km/h
Spd
kts
Gust
kts
21/11:30pm 4.0 -0.6 3.9 99 0.0 SE 17 17 9 9 1028.5 1028.7 0.0
21/11:00pm 4.4 0.3 4.3 99 0.0 ESE 15 17 8 9 1028.9 1029.1 0.0
21/10:30pm 5.0 0.6 4.9 99 0.0 ESE 17 19 9 10 1029.1 1029.3 0.0
21/10:00pm 6.0 1.5 5.9 99 0.0 ESE 19 20 10 11 1029.3 1029.5 0.0
21/09:30pm 5.7 1.5 5.6 99 0.0 SE 17 19 9 10 1029.7 1029.9 0.0
21/09:00pm 6.3 2.2 6.0 98 0.1 SE 17 19 9 10 1029.6 1029.8 0.0
21/08:30pm 6.5 2.7 5.9 96 0.3 ESE 15 17 8 9 1029.4 1029.6 0.0
21/08:00pm 6.9 3.2 6.2 95 0.3 SE 15 17 8 9 1029.4 1029.6 0.0
21/07:30pm 7.2 3.8 6.0 92 0.5 SE 13 15 7 8 1029.4 1029.6 0.0
21/07:00pm 9.0 6.2 7.1 88 0.9 SSE 11 13 6 7 1029.2 1029.4 0.0
21/06:30pm 10.6 8.3 7.5 81 1.5 SSE 9 11 5 6 1029.1 1029.3 0.0
21/06:00pm 12.5 10.5 8.6 77 2.0 SSE 9 11 5 6 1028.9 1029.1 0.0
21/05:30pm 14.1 12.2 9.1 72 2.6 SE 9 11 5 6 1028.6 1028.8 0.0
21/05:00pm 14.7 11.9 8.4 66 3.2 ESE 13 17 7 9 1028.6 1028.8 0.0
21/04:30pm 14.9 12.0 8.2 64 3.4 ESE 13 19 7 10 1028.8 1029.0 0.0
21/04:00pm 14.9 12.1 8.6 66 3.2 ESE 13 19 7 10 1029.1 1029.3 0.0
21/03:30pm 15.1 12.8 9.0 67 3.2 SE 11 17 6 9 1029.3 1029.5 0.0
21/03:00pm 15.2 13.2 8.7 65 3.3 ESE 9 15 5 8 1029.7 1029.9 0.0
21/02:30pm 15.0 12.7 9.1 68 3.1 E 11 17 6 9 1029.9 1030.1 0.0
21/02:00pm 14.6 11.2 9.0 69 2.9 ESE 17 24 9 13 1030.2 1030.4 0.0
21/01:30pm 14.1 10.9 8.5 69 2.8 ESE 15 20 8 11 1030.5 1030.8 0.0
21/01:00pm 14.3 11.3 9.3 72 2.6 ESE 15 26 8 14 1030.7 1031.0 0.0
21/12:30pm 13.3 10.0 8.2 71 2.6 SE 15 22 8 12 1031.2 1031.5 0.0
21/12:00pm 13.3 9.8 8.8 74 2.3 E 17 20 9 11 1031.5 1031.8 0.0
21/11:30am 12.5 9.4 7.4 71 2.5 ESE 13 22 7 12 1031.9 1032.2 0.0
21/11:00am 12.6 9.3 7.9 73 2.3 SE 15 22 8 12 1032.2 1032.5 0.0
21/10:30am 12.0 8.5 7.3 73 2.3 E 15 22 8 12 1032.2 1032.5 0.0
21/10:00am 11.7 7.4 7.0 73 2.3 E 19 26 10 14 1032.1 1032.4 0.0
21/09:30am 11.3 7.6 7.8 79 1.7 E 17 22 9 12 1031.9 1032.2 0.0
21/09:00am 10.0 6.6 7.6 85 1.2 E 15 17 8 9 1031.7 1032.0 0.0
21/08:30am 8.8 6.4 8.5 98 0.1 ESE 11 13 6 7 1031.5 1031.8 0.0
21/08:00am 6.3 3.7 6.2 99 0.0 E 9 11 5 6 1031.0 1031.3 0.0
21/07:30am 4.1 0.7 4.0 99 0.0 ESE 11 11 6 6 1031.0 1031.3 0.0
21/07:00am 2.2 -1.2 2.1 99 0.0 E 9 11 5 6 1030.5 1030.8 0.0
21/06:30am 1.7 -1.7 1.6 99 0.0 E 9 13 5 7 1030.5 1030.8 0.0
21/06:00am 1.6 -2.2 1.5 99 0.0 ENE 11 13 6 7 1030.0 1030.2 0.0
21/05:30am 2.8 -1.6 2.7 99 0.0 E 15 19 8 10 1029.8 1030.0 0.0
21/05:00am 1.0 -3.7 0.9 99 0.0 ESE 15 15 8 8 1029.9 1030.1 0.0
21/04:30am 1.4 -3.2 1.3 99 0.0 SE 15 15 8 8 1029.9 1030.1 0.0
21/04:00am 1.2 -3.1 1.1 99 0.0 ESE 13 15 7 8 1029.8 1030.0 0.0
21/03:30am 1.4 -3.2 1.3 99 0.0 E 15 15 8 8 1029.8 1030.0 0.0
21/03:00am 2.1 -2.4 2.0 99 0.0 E 15 17 8 9 1029.7 1029.9 0.0
21/02:30am 3.0 -1.4 2.9 99 0.0 E 15 19 8 10 1029.9 1030.1 0.0
21/02:00am 2.0 -2.5 1.9 99 0.0 SE 15 17 8 9 1030.7 1031.0 0.0
21/01:30am 2.1 -2.8 2.0 99 0.0 ESE 17 17 9 9 1030.6 1030.9 0.0
21/01:00am 1.8 -2.4 1.7 99 0.0 SE 13 15 7 8 1030.9 1031.2 0.0
21/12:30am 2.5 -0.8 2.4 99 0.0 ESE 9 11 5 6 1030.6 1030.9 0.0
21/12:00am 2.8 -1.2 2.7 99 0.0 E 13 13 7 7 1030.5 1030.8 0.0
 
Date/Time
EST
Temp
°C
App
Temp
°C
Dew
Point
Rel
Hum
%
Delta-T
°C
Wind Press
QNH
hPa
Press
MSL
hPa
Rain
since 9 am
mm
Dir
 
Spd
km/h
Gust
km/h
Spd
kts
Gust
kts
20/11:30pm 2.8 -1.2 2.7 99 0.0 ESE 13 13 7 7 1030.8 1031.1 0.0
20/11:00pm 2.9 -1.1 2.6 98 0.1 SE 13 13 7 7 1030.7 1031.0 0.0
20/10:30pm 2.9 -1.2 2.5 97 0.2 ESE 13 13 7 7 1030.4 1030.7 0.0
20/10:00pm 3.5 -0.5 2.9 96 0.2 SE 13 13 7 7 1030.5 1030.8 0.0
20/09:30pm 4.4 0.2 3.8 96 0.3 SE 15 17 8 9 1030.4 1030.7 0.0
20/09:00pm 4.3 0.4 3.6 95 0.3 SE 13 15 7 8 1030.5 1030.8 0.0
20/08:30pm 4.8 0.6 3.9 94 0.4 SE 15 17 8 9 1030.4 1030.7 0.0
20/08:00pm 5.8 1.7 4.6 92 0.5 SE 15 17 8 9 1030.3 1030.5 0.0
20/07:30pm 7.5 3.3 5.8 89 0.8 SSE 17 20 9 11 1030.1 1030.3 0.0
20/07:00pm 8.8 4.3 6.8 87 0.9 SSE 20 26 11 14 1029.7 1029.9 0.0
20/06:30pm 9.2 4.7 6.3 82 1.4 SSE 19 22 10 12 1029.5 1029.7 0.0
20/06:00pm 10.4 5.8 6.5 77 1.8 SSE 20 26 11 14 1029.2 1029.4 0.0
20/05:30pm 12.2 7.3 7.1 71 2.5 SSE 22 28 12 15 1028.8 1029.0 0.0
20/05:00pm 12.2 7.8 7.3 72 2.4 SSE 20 26 11 14 1028.4 1028.6 0.0
20/04:30pm 14.2 10.0 7.5 64 3.3 S 19 24 10 13 1028.0 1028.3 0.0
20/04:00pm 14.5 10.9 8.5 67 3.0 SSE 17 22 9 12 1027.9 1028.2 0.0
20/03:30pm 14.5 11.0 8.7 68 3.0 SSE 17 26 9 14 1027.8 1028.1 0.0
20/03:00pm 14.7 12.5 8.0 64 3.4 ESE 9 13 5 7 1027.7 1028.0 0.0
20/02:30pm 14.6 11.7 8.3 66 3.2 ESE 13 20 7 11 1027.7 1028.0 0.0
20/02:00pm 14.4 11.5 8.1 66 3.2 ESE 13 22 7 12 1027.7 1028.0 0.0
20/01:30pm 13.4 10.0 7.6 68 2.9 SE 15 20 8 11 1027.7 1028.0 0.0
20/01:00pm 13.7 10.2 7.0 64 3.3 SE 15 24 8 13 1028.0 1028.3 0.0
20/12:30pm 13.3 9.6 6.2 62 3.4 SSE 15 22 8 12 1028.3 1028.5 0.0
20/12:00pm 12.8 9.7 7.3 69 2.7 ESE 13 20 7 11 1028.4 1028.6 0.0
20/11:30am 12.7 10.1 7.6 71 2.5 ESE 11 17 6 9 1028.5 1028.7 0.0
20/11:00am 12.3 8.3 6.8 69 2.6 ESE 17 22 9 12 1028.8 1029.0 0.0
20/10:30am 12.0 8.0 6.5 69 2.6 ESE 17 24 9 13 1029.0 1029.2 0.0
20/10:00am 11.5 7.9 6.6 72 2.3 ESE 15 20 8 11 1029.1 1029.3 0.0
20/09:30am 10.8 8.1 8.9 88 1.0 SE 13 15 7 8 1029.2 1029.4 0.0
20/09:00am 10.2 8.5 10.0 99 0.1 ESE 9 13 5 7 1029.2 1029.4 0.2
20/08:30am 8.7 6.7 8.6 99 0.0 E 9 11 5 6 1028.7 1028.9 0.2
20/08:00am 7.1 5.1 7.0 99 0.0 ESE 7 7 4 4 1028.5 1028.7 0.2
20/07:42am 6.0 3.4 5.9 99 0.0 E 9 11 5 6 1028.3 1028.5 0.2
20/07:30am 5.0 1.8 4.9 99 0.0 E 11 13 6 7 1027.9 1028.2 0.2
20/07:23am 4.6 1.3 4.5 99 0.0 E 11 13 6 7 1027.9 1028.2 0.2
20/07:00am 2.7 -1.0 2.6 99 0.0 ESE 11 13 6 7 1027.6 1027.9 0.0
20/06:30am 2.8 -0.5 2.7 99 0.0 ESE 9 11 5 6 1027.4 1027.7 0.0
20/06:23am 2.8 -0.5 2.7 99 0.0 ESE 9 11 5 6 1027.2 1027.5 0.0
20/06:00am 2.9 0.0 2.8 99 0.0 ESE 7 9 4 5 1027.1 1027.4 0.0
20/05:58am 2.7 -0.2 2.6 99 0.0 ESE 7 9 4 5 1027.0 1027.3 0.0
20/05:30am 3.2 0.4 3.1 99 0.0 E 7 9 4 5 1026.8 1027.0 0.0
20/05:00am 2.8 -0.5 2.7 99 0.0 E 9 9 5 5 1026.4 1026.6 0.0
20/04:49am 2.4 -0.9 2.3 99 0.0 ESE 9 11 5 6 1026.2 1026.4 0.0
20/04:30am 2.4 -0.9 2.3 99 0.0 ESE 9 9 5 5 1026.1 1026.3 0.0
20/04:15am 3.1 -0.1 3.0 99 0.0 E 9 9 5 5 1025.9 1026.1 0.0
20/04:00am 2.6 -0.3 2.5 99 0.0 E 7 9 4 5 1025.8 1026.0 0.0
20/03:30am 2.7 -1.0 2.6 99 0.0 E 11 11 6 6 1025.6 1025.8 0.0
20/03:00am 3.2 0.0 3.1 99 0.0 ENE 9 9 5 5 1025.6 1025.8 0.0
20/02:30am 4.9 2.4 4.8 99 0.0 ENE 7 9 4 5 1025.7 1025.9 0.0
20/02:00am 4.2 1.2 4.1 99 0.0 ENE 9 11 5 6 1026.0 1026.2 0.0
20/01:56am 3.8 0.7 3.7 99 0.0 ENE 9 11 5 6 1026.0 1026.2 0.0
20/01:30am 1.3 -1.8 1.2 99 0.0 NNE 7 9 4 5 1026.3 1026.5 0.0
20/01:28am 1.3 -1.8 1.2 99 0.0 NNE 7 9 4 5 1026.3 1026.5 0.0
20/01:12am 4.8 1.9 4.7 99 0.0 ESE 9 9 5 5 1026.2 1026.4 0.0
20/01:00am 2.9 0.2 2.8 99 0.0 NE 6 7 3 4 1026.4 1026.6 0.0
20/12:54am 1.7 -1.2 1.6 99 0.0 NNE 6 7 3 4 1026.4 1026.6 0.0
20/12:30am 2.7 -0.2 2.6 99 0.0 SSW 7 9 4 5 1026.3 1026.5 0.0
20/12:12am 3.5 2.1 3.4 99 0.0 CALM 0 7 0 4 1026.2 1026.4 0.0
20/12:00am 3.4 2.0 3.3 99 0.0 CALM 0 0 0 0 1026.2 1026.4 0.0
 
Date/Time
EST
Temp
°C
App
Temp
°C
Dew
Point
Rel
Hum
%
Delta-T
°C
Wind Press
QNH
hPa
Press
MSL
hPa
Rain
since 9 am
mm
Dir
 
Spd
km/h
Gust
km/h
Spd
kts
Gust
kts
19/11:46pm 3.1 1.6 3.0 99 0.0 CALM 0 0 0 0 1026.3 1026.5 0.0
19/11:30pm 3.8 2.4 3.7 99 0.0 CALM 0 4 0 2 1026.2 1026.4 0.0
19/11:00pm 4.3 1.7 4.2 99 0.0 N 7 7 4 4 1026.3 1026.5 0.0
19/10:53pm 4.5 1.9 4.4 99 0.0 N 7 7 4 4 1026.3 1026.5 0.0
19/10:30pm 4.1 1.5 4.0 99 0.0 NNE 7 9 4 5 1026.3 1026.5 0.0
19/10:00pm 4.7 1.8 4.6 99 0.0 ESE 9 11 5 6 1026.6 1026.8 0.0
19/09:30pm 5.2 2.0 4.9 98 0.1 SE 11 13 6 7 1026.7 1026.9 0.0
19/09:00pm 6.1 3.0 5.5 96 0.3 ESE 11 13 6 7 1026.6 1026.8 0.0
19/08:30pm 7.9 5.5 7.0 94 0.4 ESE 9 11 5 6 1026.6 1026.8 0.0

Other Formats:

Comma delimited format used in spreadsheet applications
http://www.bom.gov.au/fwo/IDV60801/IDV60801.94829.axf

JavaScript Object Notation format (JSON) in row-major order
http://www.bom.gov.au/fwo/IDV60801/IDV60801.94829.json